Time;durP1;ratioP1;P1;durP2;ratioP2;P2;SDS_P1;SDS_P2;PMS_P1;PMS_P2;Temp;Humidity;BMP_temperature;BMP_pressure;BME280_temperature;BME280_humidity;BME280_pressure;Samples;Min_cycle;Max_cycle;Signal;HPM_P1;HPM_P2
2022/12/07 00:02:11;;;;;;;18.02;5.13;;;;;;;;;;4979960;28;20031;-72
2022/12/07 00:04:37;;;;;;;11.32;5.28;;;;;;;;;;4984273;28;20043;-72
2022/12/07 00:07:02;;;;;;;11.32;4.50;;;;;;;;;;4986595;28;20085;-73
2022/12/07 00:09:28;;;;;;;9.07;4.72;;;;;;;;;;4992925;28;20118;-72
2022/12/07 00:11:53;;;;;;;11.52;4.82;;;;;;;;;;4978628;28;20113;-72
2022/12/07 00:14:19;;;;;;;11.93;4.82;;;;;;;;;;4992083;28;20042;-72
2022/12/07 00:16:45;;;;;;;20.20;5.18;;;;;;;;;;4985845;28;20035;-72
2022/12/07 00:19:13;;;;;;;12.02;4.65;;;;;;;;;;4982849;28;20031;-72
2022/12/07 00:21:38;;;;;;;9.18;4.43;;;;;;;;;;4982888;28;20105;-72
2022/12/07 00:24:04;;;;;;;19.65;4.32;;;;;;;;;;4980182;28;20192;-72
2022/12/07 00:26:32;;;;;;;12.25;4.05;;;;;;;;;;4982964;28;20034;-72
2022/12/07 00:29:00;;;;;;;15.63;4.82;;;;;;;;;;4978979;28;20109;-72
2022/12/07 00:31:29;;;;;;;11.98;4.53;;;;;;;;;;4989467;28;20042;-72
2022/12/07 00:33:55;;;;;;;15.30;4.43;;;;;;;;;;4981613;28;20031;-72
2022/12/07 00:36:22;;;;;;;12.45;4.25;;;;;;;;;;4985240;28;20471;-72
2022/12/07 00:38:48;;;;;;;10.57;4.72;;;;;;;;;;4986466;28;20061;-72
2022/12/07 00:41:18;;;;;;;11.18;4.10;;;;;;;;;;4983743;28;20058;-72
2022/12/07 00:43:45;;;;;;;8.35;4.10;;;;;;;;;;4980538;28;20031;-72
2022/12/07 00:46:11;;;;;;;20.38;5.00;;;;;;;;;;4987511;28;20042;-71
2022/12/07 00:48:36;;;;;;;8.57;3.67;;;;;;;;;;4981921;28;20043;-72
2022/12/07 00:51:03;;;;;;;12.45;4.38;;;;;;;;;;4984757;28;20471;-71
2022/12/07 00:53:28;;;;;;;10.02;4.05;;;;;;;;;;4977004;28;20037;-72
2022/12/07 00:55:55;;;;;;;7.65;3.70;;;;;;;;;;4985784;28;20378;-72
2022/12/07 00:58:21;;;;;;;13.00;3.88;;;;;;;;;;4991705;28;20425;-72
2022/12/07 01:00:46;;;;;;;9.52;3.95;;;;;;;;;;4981954;28;20042;-71
2022/12/07 01:03:13;;;;;;;13.48;4.65;;;;;;;;;;4982640;28;20031;-72
2022/12/07 01:05:39;;;;;;;13.32;4.45;;;;;;;;;;4993486;28;20101;-71
2022/12/07 01:08:05;;;;;;;15.23;4.68;;;;;;;;;;4988172;28;20034;-72
2022/12/07 01:10:31;;;;;;;13.10;3.90;;;;;;;;;;4980697;28;20471;-71
2022/12/07 01:12:57;;;;;;;6.53;3.67;;;;;;;;;;4988496;28;20121;-71
2022/12/07 01:15:23;;;;;;;17.73;4.60;;;;;;;;;;4989288;28;20062;-71
2022/12/07 01:17:48;;;;;;;11.00;4.97;;;;;;;;;;4987429;28;20070;-71
2022/12/07 01:20:15;;;;;;;17.13;4.13;;;;;;;;;;4980797;28;20170;-72
2022/12/07 01:22:41;;;;;;;7.25;3.85;;;;;;;;;;4984669;28;20054;-73
2022/12/07 01:25:08;;;;;;;14.25;3.65;;;;;;;;;;4978097;28;20030;-72
2022/12/07 01:27:34;;;;;;;18.65;4.43;;;;;;;;;;4978104;28;20137;-71
2022/12/07 01:30:00;;;;;;;12.13;4.68;;;;;;;;;;4980079;28;20043;-71
2022/12/07 01:32:26;;;;;;;17.30;3.75;;;;;;;;;;4983896;28;20031;-71
2022/12/07 01:34:51;;;;;;;9.10;3.97;;;;;;;;;;4986300;28;20400;-72
2022/12/07 01:37:16;;;;;;;8.57;3.95;;;;;;;;;;4987547;28;20041;-72
2022/12/07 01:39:42;;;;;;;6.55;3.60;;;;;;;;;;4989641;28;20073;-72
2022/12/07 01:42:11;;;;;;;12.45;4.43;;;;;;;;;;4990457;28;20034;-71
2022/12/07 01:45:14;;;;;;;16.05;4.72;;;;;;;;;;4988929;28;20050;-72
2022/12/07 01:47:41;;;;;;;11.38;4.85;;;;;;;;;;4983278;28;20359;-71
2022/12/07 01:50:07;;;;;;;14.52;4.20;;;;;;;;;;4980738;28;20109;-72
2022/12/07 01:52:33;;;;;;;7.65;3.78;;;;;;;;;;4976572;28;20544;-72
2022/12/07 01:55:02;;;;;;;7.80;3.83;;;;;;;;;;4976265;28;20033;-72
2022/12/07 01:57:28;;;;;;;13.68;3.90;;;;;;;;;;4974176;28;20049;-71
2022/12/07 01:59:54;;;;;;;15.73;4.10;;;;;;;;;;4978927;28;20101;-72
2022/12/07 02:02:26;;;;;;;10.25;4.10;;;;;;;;;;4978375;28;20505;-72
2022/12/07 02:04:53;;;;;;;9.07;4.00;;;;;;;;;;4985542;28;20049;-72
2022/12/07 02:07:20;;;;;;;15.60;4.57;;;;;;;;;;4980609;28;20034;-72
2022/12/07 02:09:45;;;;;;;11.40;4.43;;;;;;;;;;4978416;28;20066;-72
2022/12/07 02:12:10;;;;;;;13.80;4.78;;;;;;;;;;4988558;28;20069;-72
2022/12/07 02:14:36;;;;;;;7.45;4.35;;;;;;;;;;4991653;28;20125;-72
2022/12/07 02:17:12;;;;;;;16.60;5.10;;;;;;;;;;4983579;28;20093;-72
2022/12/07 02:19:55;;;;;;;8.90;4.65;;;;;;;;;;4983229;28;20041;-71
2022/12/07 02:22:42;;;;;;;12.85;5.15;;;;;;;;;;4979549;28;20046;-72
2022/12/07 02:25:52;;;;;;;14.95;4.68;;;;;;;;;;4988034;28;20035;-72
2022/12/07 02:29:08;;;;;;;7.40;4.15;;;;;;;;;;4977113;28;20136;-71
2022/12/07 02:31:34;;;;;;;11.98;4.00;;;;;;;;;;4967047;28;20527;-71
2022/12/07 02:34:11;;;;;;;14.13;4.35;;;;;;;;;;4971975;28;20043;-72
2022/12/07 02:36:42;;;;;;;10.77;3.90;;;;;;;;;;4974052;28;20125;-71
2022/12/07 02:39:20;;;;;;;14.07;4.10;;;;;;;;;;4980290;28;20057;-72
2022/12/07 02:41:55;;;;;;;16.98;4.40;;;;;;;;;;4980927;28;20042;-72
2022/12/07 02:44:24;;;;;;;26.48;4.95;;;;;;;;;;4975936;28;20093;-71
2022/12/07 02:46:54;;;;;;;15.63;4.45;;;;;;;;;;4982032;28;20035;-72
2022/12/07 02:49:22;;;;;;;8.48;4.20;;;;;;;;;;4975787;28;20053;-72
2022/12/07 02:51:47;;;;;;;8.13;3.65;;;;;;;;;;4984991;28;20038;-72
2022/12/07 02:54:18;;;;;;;14.60;4.03;;;;;;;;;;4989669;28;20046;-72
2022/12/07 02:56:43;;;;;;;6.57;3.55;;;;;;;;;;4984688;28;20089;-73
2022/12/07 02:59:14;;;;;;;13.68;3.50;;;;;;;;;;4983803;28;20046;-73
2022/12/07 03:01:52;;;;;;;10.63;3.17;;;;;;;;;;4979787;28;20045;-72
2022/12/07 03:04:29;;;;;;;10.50;3.78;;;;;;;;;;4984148;28;20073;-72
2022/12/07 03:07:05;;;;;;;10.73;3.92;;;;;;;;;;4987164;28;20043;-72
2022/12/07 03:09:52;;;;;;;11.95;3.50;;;;;;;;;;4987820;28;20022;-73
2022/12/07 03:12:22;;;;;;;8.30;3.00;;;;;;;;;;4988554;28;20042;-72
2022/12/07 03:15:03;;;;;;;14.57;3.33;;;;;;;;;;4981344;28;20041;-71
2022/12/07 03:17:30;;;;;;;6.47;3.10;;;;;;;;;;4980956;28;20042;-71
2022/12/07 03:19:59;;;;;;;9.75;3.97;;;;;;;;;;4980922;28;20126;-72
2022/12/07 03:22:28;;;;;;;8.85;4.10;;;;;;;;;;4979198;28;20399;-72
2022/12/07 03:24:58;;;;;;;15.23;3.72;;;;;;;;;;4980149;28;20073;-72
2022/12/07 03:27:36;;;;;;;6.10;3.20;;;;;;;;;;4965865;28;20420;-72
2022/12/07 03:30:10;;;;;;;9.40;3.28;;;;;;;;;;4977434;28;20446;-71
2022/12/07 03:32:45;;;;;;;13.02;5.20;;;;;;;;;;4977786;28;20051;-71
2022/12/07 03:35:18;;;;;;;7.63;3.40;;;;;;;;;;4983877;28;20489;-72
2022/12/07 03:37:48;;;;;;;10.38;3.20;;;;;;;;;;4985836;28;20046;-73
2022/12/07 03:40:28;;;;;;;8.30;3.22;;;;;;;;;;4979776;28;20046;-71
2022/12/07 03:42:54;;;;;;;6.10;3.20;;;;;;;;;;4975537;28;20446;-71
2022/12/07 03:45:24;;;;;;;11.15;3.65;;;;;;;;;;4979504;28;20043;-72
2022/12/07 03:47:59;;;;;;;12.48;2.75;;;;;;;;;;4974499;28;20131;-71
2022/12/07 03:50:45;;;;;;;8.40;3.53;;;;;;;;;;4983146;28;20039;-72
2022/12/07 03:53:13;;;;;;;6.95;3.28;;;;;;;;;;4972747;28;20047;-73
2022/12/07 03:55:41;;;;;;;10.57;2.85;;;;;;;;;;4983079;28;20072;-71
2022/12/07 03:58:13;;;;;;;13.52;4.50;;;;;;;;;;4977200;28;20046;-71
2022/12/07 04:00:40;;;;;;;9.98;4.15;;;;;;;;;;4990967;28;20089;-71
2022/12/07 04:03:05;;;;;;;15.38;4.07;;;;;;;;;;4987245;28;20129;-71
2022/12/07 04:05:31;;;;;;;12.45;3.58;;;;;;;;;;4980066;28;20451;-72
2022/12/07 04:07:57;;;;;;;11.30;3.72;;;;;;;;;;4982229;28;20053;-71
2022/12/07 04:10:22;;;;;;;13.27;4.00;;;;;;;;;;4980554;28;20038;-71
2022/12/07 04:12:47;;;;;;;12.27;4.03;;;;;;;;;;4992143;28;20062;-71
2022/12/07 04:15:13;;;;;;;12.55;3.63;;;;;;;;;;4992280;28;20093;-72
2022/12/07 04:17:38;;;;;;;15.15;4.80;;;;;;;;;;4982032;28;20045;-71
2022/12/07 04:20:05;;;;;;;16.02;4.32;;;;;;;;;;4985116;28;20054;-72
2022/12/07 04:22:30;;;;;;;15.10;4.43;;;;;;;;;;4986913;28;20039;-72
2022/12/07 04:24:56;;;;;;;12.30;4.72;;;;;;;;;;4990121;28;20031;-72
2022/12/07 04:27:21;;;;;;;13.25;4.68;;;;;;;;;;4986663;28;20386;-72
2022/12/07 04:29:46;;;;;;;12.60;4.22;;;;;;;;;;4986152;28;20078;-71
2022/12/07 04:32:12;;;;;;;15.18;5.03;;;;;;;;;;4981486;28;20062;-72
2022/12/07 04:34:37;;;;;;;19.70;4.60;;;;;;;;;;4982580;28;20395;-72
2022/12/07 04:37:03;;;;;;;11.65;4.93;;;;;;;;;;4989570;28;20042;-71
2022/12/07 04:39:31;;;;;;;18.15;4.25;;;;;;;;;;4987549;28;20038;-71
2022/12/07 04:41:57;;;;;;;15.75;4.90;;;;;;;;;;4983622;28;20517;-71
2022/12/07 04:44:24;;;;;;;14.13;3.97;;;;;;;;;;4980549;28;20042;-72
2022/12/07 04:46:50;;;;;;;15.55;4.68;;;;;;;;;;4986423;28;20122;-71
2022/12/07 04:49:16;;;;;;;11.77;4.15;;;;;;;;;;4973831;28;20026;-72
2022/12/07 04:51:41;;;;;;;12.55;4.88;;;;;;;;;;4978235;28;20089;-71
2022/12/07 04:54:07;;;;;;;16.42;4.55;;;;;;;;;;4984270;28;20062;-72
2022/12/07 04:56:34;;;;;;;19.55;5.20;;;;;;;;;;4992873;28;20059;-72
2022/12/07 04:59:00;;;;;;;15.68;3.97;;;;;;;;;;4992207;28;20038;-71
2022/12/07 05:01:26;;;;;;;13.57;3.40;;;;;;;;;;4985363;28;20098;-71
2022/12/07 05:03:51;;;;;;;14.70;3.97;;;;;;;;;;4984279;28;20085;-72
2022/12/07 05:06:17;;;;;;;9.10;3.35;;;;;;;;;;4982344;28;20509;-72
2022/12/07 05:08:42;;;;;;;14.55;3.58;;;;;;;;;;4985728;28;20038;-71
2022/12/07 05:11:08;;;;;;;9.48;3.38;;;;;;;;;;4983918;28;20039;-71
2022/12/07 05:13:35;;;;;;;7.40;3.38;;;;;;;;;;4978079;28;20454;-71
2022/12/07 05:16:00;;;;;;;12.45;3.80;;;;;;;;;;4990183;28;20039;-72
2022/12/07 05:18:26;;;;;;;6.60;3.10;;;;;;;;;;4988245;28;20025;-72
2022/12/07 05:20:52;;;;;;;6.63;3.40;;;;;;;;;;4985291;28;20479;-71
2022/12/07 05:23:17;;;;;;;11.48;3.63;;;;;;;;;;4986350;28;20058;-72
2022/12/07 05:25:43;;;;;;;8.23;4.20;;;;;;;;;;4988534;28;20533;-72
2022/12/07 05:28:09;;;;;;;10.15;4.32;;;;;;;;;;4982330;28;20069;-71
2022/12/07 05:30:34;;;;;;;8.98;4.00;;;;;;;;;;4983628;28;20612;-71
2022/12/07 05:32:59;;;;;;;15.00;4.15;;;;;;;;;;4982587;28;20105;-72
2022/12/07 05:35:25;;;;;;;16.70;4.32;;;;;;;;;;4990486;28;20037;-71
2022/12/07 05:37:50;;;;;;;9.82;3.95;;;;;;;;;;4984957;28;20046;-72
2022/12/07 05:40:16;;;;;;;6.78;3.78;;;;;;;;;;4984106;28;20493;-72
2022/12/07 05:42:42;;;;;;;6.32;3.22;;;;;;;;;;4987862;28;20042;-71
2022/12/07 05:45:09;;;;;;;8.43;3.50;;;;;;;;;;4982001;28;20387;-72
2022/12/07 05:47:34;;;;;;;10.90;3.13;;;;;;;;;;4988083;28;20046;-71
2022/12/07 05:50:00;;;;;;;10.00;4.25;;;;;;;;;;4989182;28;20049;-73
2022/12/07 05:52:25;;;;;;;9.55;3.10;;;;;;;;;;4989651;28;20046;-71
2022/12/07 05:54:51;;;;;;;14.50;3.88;;;;;;;;;;4990256;28;20035;-71
2022/12/07 05:57:16;;;;;;;13.20;4.25;;;;;;;;;;4989726;28;20068;-72
2022/12/07 05:59:42;;;;;;;13.00;3.92;;;;;;;;;;4986815;28;20176;-71
2022/12/07 06:02:10;;;;;;;12.18;4.03;;;;;;;;;;4989912;28;20490;-71
2022/12/07 06:04:38;;;;;;;12.63;4.63;;;;;;;;;;4980244;28;20467;-72
2022/12/07 06:07:04;;;;;;;18.58;4.55;;;;;;;;;;4982599;28;20050;-71
2022/12/07 06:09:30;;;;;;;7.40;3.75;;;;;;;;;;4984110;28;20397;-72
2022/12/07 06:14:41;;;;;;;10.43;4.53;;;;;;;;;;4980530;28;20052;-71
2022/12/07 06:17:06;;;;;;;12.40;3.63;;;;;;;;;;4987769;28;20053;-71
2022/12/07 06:19:32;;;;;;;13.52;3.78;;;;;;;;;;4988115;28;20050;-73
2022/12/07 06:21:57;;;;;;;9.88;3.92;;;;;;;;;;4978164;28;20109;-71
2022/12/07 06:24:23;;;;;;;14.05;4.20;;;;;;;;;;4981185;28;20039;-72
2022/12/07 06:26:48;;;;;;;9.98;3.97;;;;;;;;;;4984908;28;20039;-72
2022/12/07 06:29:14;;;;;;;14.10;5.05;;;;;;;;;;4979649;28;20065;-73
2022/12/07 06:31:40;;;;;;;18.88;4.10;;;;;;;;;;4976603;28;20038;-71
2022/12/07 06:34:09;;;;;;;10.93;3.65;;;;;;;;;;4980676;28;20088;-71
2022/12/07 06:36:34;;;;;;;15.15;4.13;;;;;;;;;;4981388;28;20067;-71
2022/12/07 06:39:00;;;;;;;11.00;3.90;;;;;;;;;;4979342;28;20062;-71
2022/12/07 06:41:25;;;;;;;10.40;4.70;;;;;;;;;;4992138;28;20100;-71
2022/12/07 06:43:51;;;;;;;17.45;4.07;;;;;;;;;;4980151;28;20035;-72
2022/12/07 06:46:16;;;;;;;9.10;4.40;;;;;;;;;;4977718;28;20441;-71
2022/12/07 06:48:42;;;;;;;11.38;3.72;;;;;;;;;;4992166;28;20050;-71
2022/12/07 06:51:08;;;;;;;12.23;3.65;;;;;;;;;;4978903;28;20031;-71
2022/12/07 06:53:34;;;;;;;15.43;4.72;;;;;;;;;;4993345;28;20125;-71
2022/12/07 06:56:00;;;;;;;6.18;3.90;;;;;;;;;;4985082;28;20050;-71
2022/12/07 06:58:25;;;;;;;11.25;4.22;;;;;;;;;;4990053;28;20066;-71
2022/12/07 07:00:50;;;;;;;13.60;4.25;;;;;;;;;;4982601;28;20039;-72
2022/12/07 07:03:16;;;;;;;11.88;4.60;;;;;;;;;;4988310;28;20046;-71
2022/12/07 07:05:42;;;;;;;13.32;4.18;;;;;;;;;;4981735;28;20035;-71
2022/12/07 07:08:08;;;;;;;9.18;3.83;;;;;;;;;;4984540;28;20588;-71
2022/12/07 07:10:34;;;;;;;9.88;4.75;;;;;;;;;;4984152;28;20121;-71
2022/12/07 07:12:59;;;;;;;5.18;2.88;;;;;;;;;;4977892;28;20034;-71
2022/12/07 07:15:25;;;;;;;10.43;4.07;;;;;;;;;;4985271;28;20039;-71
2022/12/07 07:17:50;;;;;;;7.43;3.13;;;;;;;;;;4986089;28;20181;-71
2022/12/07 07:20:16;;;;;;;12.13;4.50;;;;;;;;;;4983354;28;20390;-72
2022/12/07 07:22:41;;;;;;;15.90;3.88;;;;;;;;;;4979513;28;20039;-71
2022/12/07 07:25:06;;;;;;;5.60;3.70;;;;;;;;;;4983473;28;20034;-71
2022/12/07 07:27:32;;;;;;;7.00;3.47;;;;;;;;;;4987030;28;20045;-71
2022/12/07 07:29:57;;;;;;;12.48;3.00;;;;;;;;;;4989881;28;20490;-71
2022/12/07 07:32:23;;;;;;;9.65;3.55;;;;;;;;;;4988236;28;20057;-71
2022/12/07 07:34:48;;;;;;;10.50;4.50;;;;;;;;;;4982063;28;20034;-71
2022/12/07 07:37:13;;;;;;;6.90;3.65;;;;;;;;;;4985706;28;20043;-71
2022/12/07 07:39:39;;;;;;;10.70;3.47;;;;;;;;;;4904400;28;20049;-72
2022/12/07 07:42:05;;;;;;;12.98;3.15;;;;;;;;;;4793114;28;20460;-71
2022/12/07 07:44:30;;;;;;;8.93;3.10;;;;;;;;;;4981499;28;20418;-71
2022/12/07 07:46:56;;;;;;;9.43;3.78;;;;;;;;;;4990818;28;20049;-72
2022/12/07 07:49:21;;;;;;;5.38;3.08;;;;;;;;;;4989344;28;20034;-71
2022/12/07 07:51:46;;;;;;;7.43;3.13;;;;;;;;;;4992278;28;20410;-71
2022/12/07 07:54:13;;;;;;;8.43;3.35;;;;;;;;;;4987856;28;20050;-71
2022/12/07 07:56:38;;;;;;;16.13;3.60;;;;;;;;;;5014521;28;20038;-72
2022/12/07 07:59:04;;;;;;;10.98;4.40;;;;;;;;;;5021815;28;20582;-72
2022/12/07 08:01:29;;;;;;;7.45;3.78;;;;;;;;;;5009883;28;20030;-73
2022/12/07 08:03:55;;;;;;;12.25;4.20;;;;;;;;;;5019882;28;20033;-72
2022/12/07 08:06:20;;;;;;;13.25;4.45;;;;;;;;;;5014990;28;20065;-74
2022/12/07 08:08:45;;;;;;;11.15;3.70;;;;;;;;;;5009388;28;20038;-72
2022/12/07 08:11:11;;;;;;;9.60;4.47;;;;;;;;;;5024013;28;20041;-72
2022/12/07 08:13:37;;;;;;;13.20;4.15;;;;;;;;;;5026055;28;20056;-72
2022/12/07 08:16:11;;;;;;;20.20;4.68;;;;;;;;;;5025221;28;20034;-73
2022/12/07 08:18:37;;;;;;;;;;;;;;;;;;4964146;28;20037;-72
2022/12/07 08:21:02;;;;;;;5.80;3.42;;;;;;;;;;5014635;28;20372;-72
2022/12/07 08:23:29;;;;;;;11.55;3.80;;;;;;;;;;5024834;28;20156;-71
2022/12/07 08:25:55;;;;;;;9.23;4.03;;;;;;;;;;4993330;28;20030;-73
2022/12/07 08:28:20;;;;;;;10.80;3.60;;;;;;;;;;5027072;28;20030;-72
2022/12/07 08:30:46;;;;;;;9.73;3.53;;;;;;;;;;5031246;28;20022;-71
2022/12/07 08:33:11;;;;;;;5.88;3.65;;;;;;;;;;5039971;28;20485;-72
2022/12/07 08:35:37;;;;;;;11.75;4.10;;;;;;;;;;5024288;28;20374;-71
2022/12/07 08:38:03;;;;;;;12.85;4.18;;;;;;;;;;5020209;28;20397;-72
2022/12/07 08:40:29;;;;;;;16.13;4.65;;;;;;;;;;5014876;28;20448;-73
2022/12/07 08:42:55;;;;;;;11.15;3.88;;;;;;;;;;5023927;28;20030;-71
2022/12/07 08:45:21;;;;;;;12.38;5.07;;;;;;;;;;5008664;28;20904;-72
2022/12/07 08:47:51;;;;;;;18.73;4.53;;;;;;;;;;5006044;28;20049;-71
2022/12/07 08:50:17;;;;;;;12.30;5.10;;;;;;;;;;5035514;28;20041;-71
2022/12/07 08:52:43;;;;;;;11.13;5.70;;;;;;;;;;5035296;28;20030;-71
2022/12/07 08:55:10;;;;;;;14.50;5.85;;;;;;;;;;5042157;28;20052;-72
2022/12/07 08:57:36;;;;;;;24.30;10.13;;;;;;;;;;5017528;28;20498;-71
2022/12/07 09:00:03;;;;;;;12.82;7.63;;;;;;;;;;5015212;28;20049;-71
2022/12/07 09:02:30;;;;;;;15.38;8.15;;;;;;;;;;5004598;28;20029;-72
2022/12/07 09:04:55;;;;;;;16.85;9.25;;;;;;;;;;5014715;28;20049;-72
2022/12/07 09:07:21;;;;;;;16.80;5.50;;;;;;;;;;5020248;28;20030;-72
2022/12/07 09:09:46;;;;;;;12.75;5.47;;;;;;;;;;5018613;28;20112;-72
2022/12/07 09:12:11;;;;;;;20.45;4.80;;;;;;;;;;5024588;28;20037;-72
2022/12/07 09:14:37;;;;;;;10.73;4.20;;;;;;;;;;5018267;28;20057;-72
2022/12/07 09:17:07;;;;;;;12.85;4.60;;;;;;;;;;5025564;28;20116;-72
2022/12/07 09:19:32;;;;;;;12.00;3.88;;;;;;;;;;5000687;28;20030;-75
2022/12/07 09:21:58;;;;;;;13.00;4.75;;;;;;;;;;5024511;28;20022;-72
2022/12/07 09:24:23;;;;;;;9.73;4.32;;;;;;;;;;5015025;28;20038;-72
2022/12/07 09:26:49;;;;;;;9.38;3.65;;;;;;;;;;5022349;28;20077;-72
2022/12/07 09:29:14;;;;;;;7.68;3.83;;;;;;;;;;5042833;28;20029;-73
2022/12/07 09:31:40;;;;;;;12.02;3.85;;;;;;;;;;5017726;28;21590;-74
2022/12/07 09:34:07;;;;;;;44.65;21.65;;;;;;;;;;5009452;28;20050;-73
2022/12/07 09:36:32;;;;;;;8.35;3.88;;;;;;;;;;5010505;28;20493;-72
2022/12/07 09:38:58;;;;;;;14.93;6.10;;;;;;;;;;5030621;28;20041;-72
2022/12/07 09:41:24;;;;;;;13.13;4.07;;;;;;;;;;5014119;28;20034;-73
2022/12/07 09:43:50;;;;;;;15.80;4.75;;;;;;;;;;5015442;28;20026;-73
2022/12/07 09:46:17;;;;;;;14.18;6.65;;;;;;;;;;5032498;28;20382;-73
2022/12/07 09:48:45;;;;;;;14.90;6.95;;;;;;;;;;4997703;28;20408;-73
2022/12/07 09:51:22;;;;;;;15.52;5.80;;;;;;;;;;5026977;28;20041;-72
2022/12/07 09:53:48;;;;;;;10.77;5.43;;;;;;;;;;4993947;28;20048;-73
2022/12/07 09:56:15;;;;;;;12.20;5.75;;;;;;;;;;5019928;28;20041;-73
2022/12/07 09:58:40;;;;;;;11.82;5.47;;;;;;;;;;5030558;28;20041;-72
2022/12/07 10:01:06;;;;;;;20.75;7.38;;;;;;;;;;4996274;28;20104;-74
2022/12/07 10:03:31;;;;;;;12.02;5.25;;;;;;;;;;5017284;28;20046;-72
2022/12/07 10:05:57;;;;;;;8.18;4.20;;;;;;;;;;5034201;28;20123;-72
2022/12/07 10:08:24;;;;;;;9.82;3.80;;;;;;;;;;5031115;28;20116;-73
2022/12/07 10:10:58;;;;;;;8.02;3.03;;;;;;;;;;5040239;28;20128;-72
2022/12/07 10:13:45;;;;;;;9.43;3.58;;;;;;;;;;5017076;28;20026;-72
2022/12/07 10:16:40;;;;;;;8.10;3.20;;;;;;;;;;5017033;28;20064;-73
2022/12/07 10:19:19;;;;;;;6.03;2.95;;;;;;;;;;4982123;28;20045;-73
2022/12/07 10:22:09;;;;;;;14.95;4.15;;;;;;;;;;5011898;28;20041;-72
2022/12/07 10:24:37;;;;;;;14.45;6.10;;;;;;;;;;4993176;28;20088;-72
2022/12/07 10:27:02;;;;;;;18.75;6.93;;;;;;;;;;5008998;28;20041;-72
2022/12/07 10:29:30;;;;;;;24.95;7.45;;;;;;;;;;5023850;28;20041;-72
2022/12/07 10:32:02;;;;;;;13.10;5.00;;;;;;;;;;5039250;28;20057;-73
2022/12/07 10:34:35;;;;;;;13.43;4.30;;;;;;;;;;5023650;28;20128;-72
2022/12/07 10:37:14;;;;;;;6.85;3.92;;;;;;;;;;5023994;28;20143;-72
2022/12/07 10:39:48;;;;;;;8.30;3.65;;;;;;;;;;5008943;28;20049;-72
2022/12/07 10:42:26;;;;;;;9.85;3.67;;;;;;;;;;5023554;28;20053;-72
2022/12/07 10:45:15;;;;;;;5.10;3.15;;;;;;;;;;4995471;28;20544;-72
2022/12/07 10:47:43;;;;;;;12.88;5.47;;;;;;;;;;5001896;28;20053;-72
2022/12/07 10:50:30;;;;;;;19.25;8.55;;;;;;;;;;5018350;28;20034;-72
2022/12/07 10:53:16;;;;;;;18.88;8.93;;;;;;;;;;5015490;28;20441;-72
2022/12/07 10:55:47;;;;;;;16.95;5.80;;;;;;;;;;5014011;28;20033;-73
2022/12/07 10:58:23;;;;;;;16.25;6.35;;;;;;;;;;5007569;28;20037;-73
2022/12/07 11:00:56;;;;;;;13.63;6.45;;;;;;;;;;5027298;28;20065;-73
2022/12/07 11:03:39;;;;;;;17.10;7.22;;;;;;;;;;5037503;28;20035;-73
2022/12/07 11:06:23;;;;;;;13.80;6.65;;;;;;;;;;5037914;28;20092;-72
2022/12/07 11:09:04;;;;;;;16.65;6.07;;;;;;;;;;5030131;28;20061;-72
2022/12/07 11:11:41;;;;;;;16.67;5.43;;;;;;;;;;5035641;28;20049;-72
2022/12/07 11:14:19;;;;;;;10.95;5.07;;;;;;;;;;5001075;28;20524;-72
2022/12/07 11:17:14;;;;;;;12.07;5.25;;;;;;;;;;5032871;28;20041;-72
2022/12/07 11:19:40;;;;;;;;;;;;;;;;;;4988643;28;20046;-73
2022/12/07 11:22:20;;;;;;;9.02;4.20;;;;;;;;;;5019865;28;20585;-72
2022/12/07 11:25:18;;;;;;;12.20;4.10;;;;;;;;;;5044087;28;20497;-73
2022/12/07 11:28:15;;;;;;;12.15;3.80;;;;;;;;;;5001043;28;20057;-72
2022/12/07 11:31:08;;;;;;;11.20;3.63;;;;;;;;;;4993343;28;20053;-72
2022/12/07 11:33:37;;;;;;;7.22;3.25;;;;;;;;;;5024497;28;20832;-72
2022/12/07 11:36:34;;;;;;;6.53;2.80;;;;;;;;;;5030062;28;20401;-73
2022/12/07 11:39:09;;;;;;;14.10;2.72;;;;;;;;;;5019904;28;20068;-72
2022/12/07 11:41:37;;;;;;;4.75;2.63;;;;;;;;;;4998999;28;20022;-72
2022/12/07 11:44:37;;;;;;;9.25;2.90;;;;;;;;;;5028658;28;20091;-72
2022/12/07 11:47:08;;;;;;;10.65;3.00;;;;;;;;;;5015843;28;20029;-72
2022/12/07 11:49:55;;;;;;;12.93;3.03;;;;;;;;;;5007675;28;20037;-72
2022/12/07 11:52:32;;;;;;;6.10;2.65;;;;;;;;;;5024259;28;20096;-73
2022/12/07 11:54:59;;;;;;;9.60;2.40;;;;;;;;;;4999397;28;20041;-72
2022/12/07 11:57:44;;;;;;;8.38;2.33;;;;;;;;;;5012854;28;20370;-72
2022/12/07 12:00:15;;;;;;;10.35;2.72;;;;;;;;;;5012701;28;20048;-72
2022/12/07 12:02:59;;;;;;;5.45;2.60;;;;;;;;;;4999219;28;20025;-73
2022/12/07 12:05:25;;;;;;;9.70;2.65;;;;;;;;;;5013458;28;20045;-72
2022/12/07 12:08:21;;;;;;;5.95;2.53;;;;;;;;;;5004573;28;20046;-72
2022/12/07 12:11:34;;;;;;;11.45;3.03;;;;;;;;;;5031812;28;20037;-73
2022/12/07 12:14:18;;;;;;;5.80;2.00;;;;;;;;;;5020842;28;20053;-72
2022/12/07 12:17:08;;;;;;;7.40;2.03;;;;;;;;;;5015200;28;20050;-73
2022/12/07 12:19:55;;;;;;;8.38;2.38;;;;;;;;;;5010788;28;20153;-72
2022/12/07 12:22:27;;;;;;;5.25;1.98;;;;;;;;;;5014668;28;20489;-73
2022/12/07 12:24:53;;;;;;;7.88;2.15;;;;;;;;;;5030731;28;20108;-73
2022/12/07 12:27:30;;;;;;;9.82;1.92;;;;;;;;;;5021678;28;20109;-72
2022/12/07 12:29:59;;;;;;;6.68;1.70;;;;;;;;;;5023986;28;20041;-74
2022/12/07 12:32:51;;;;;;;4.82;1.80;;;;;;;;;;5007293;28;20034;-72
2022/12/07 12:35:23;;;;;;;6.75;1.60;;;;;;;;;;4975945;28;20422;-72
2022/12/07 12:37:49;;;;;;;9.43;1.77;;;;;;;;;;5012180;28;20941;-72
2022/12/07 12:40:14;;;;;;;12.82;1.65;;;;;;;;;;5018370;28;20445;-72
2022/12/07 12:42:50;;;;;;;9.18;1.60;;;;;;;;;;5016905;28;20069;-71
2022/12/07 12:45:29;;;;;;;5.15;1.80;;;;;;;;;;5010493;28;20061;-72
2022/12/07 12:48:09;;;;;;;6.22;1.77;;;;;;;;;;5014760;28;20124;-72
2022/12/07 12:50:37;;;;;;;4.32;1.55;;;;;;;;;;5005774;28;20132;-73
2022/12/07 12:53:11;;;;;;;10.70;1.60;;;;;;;;;;5028374;28;20045;-71
2022/12/07 12:56:07;;;;;;;4.57;1.80;;;;;;;;;;5026012;28;20052;-72
2022/12/07 12:58:38;;;;;;;5.32;2.17;;;;;;;;;;5028329;28;20456;-72
2022/12/07 13:01:28;;;;;;;4.95;1.70;;;;;;;;;;5001040;28;20159;-72
2022/12/07 13:03:55;;;;;;;3.63;1.52;;;;;;;;;;5008140;28;20045;-72
2022/12/07 13:06:24;;;;;;;7.47;1.83;;;;;;;;;;4998552;28;20081;-74
2022/12/07 13:08:50;;;;;;;2.72;1.52;;;;;;;;;;5008099;28;20037;-73
2022/12/07 13:11:42;;;;;;;2.70;1.30;;;;;;;;;;5001517;28;20076;-73
2022/12/07 13:14:40;;;;;;;6.68;1.60;;;;;;;;;;5018460;28;20912;-72
2022/12/07 13:17:31;;;;;;;5.03;1.70;;;;;;;;;;5022396;28;20125;-72
2022/12/07 13:20:01;;;;;;;7.30;1.83;;;;;;;;;;4987412;28;20048;-72
2022/12/07 13:22:29;;;;;;;3.35;1.30;;;;;;;;;;5017124;28;20565;-73
2022/12/07 13:25:17;;;;;;;4.00;1.77;;;;;;;;;;5018551;28;20167;-73
2022/12/07 13:27:52;;;;;;;5.80;1.52;;;;;;;;;;5021490;28;20033;-72
2022/12/07 13:30:20;;;;;;;6.45;1.50;;;;;;;;;;5029315;28;20042;-72
2022/12/07 13:32:56;;;;;;;6.88;1.95;;;;;;;;;;5005970;28;20483;-73
2022/12/07 13:35:37;;;;;;;5.63;1.80;;;;;;;;;;4989103;28;20461;-73
2022/12/07 13:38:13;;;;;;;4.60;1.73;;;;;;;;;;5022345;28;20389;-72
2022/12/07 13:40:38;;;;;;;5.45;1.80;;;;;;;;;;5029867;28;20321;-72
2022/12/07 13:43:04;;;;;;;9.85;1.70;;;;;;;;;;5026008;28;20045;-72
2022/12/07 13:45:47;;;;;;;10.27;2.15;;;;;;;;;;5002002;28;20387;-73
2022/12/07 13:48:19;;;;;;;6.03;1.67;;;;;;;;;;4994701;28;20053;-73
2022/12/07 13:50:52;;;;;;;7.95;1.65;;;;;;;;;;5017570;28;20038;-73
2022/12/07 13:53:18;;;;;;;7.50;1.80;;;;;;;;;;4999487;28;20053;-73
2022/12/07 13:55:46;;;;;;;5.30;1.50;;;;;;;;;;5001382;28;20065;-72
2022/12/07 13:58:12;;;;;;;4.05;1.65;;;;;;;;;;5019715;28;20120;-72
2022/12/07 14:00:37;;;;;;;7.53;1.60;;;;;;;;;;5016258;28;20085;-72
2022/12/07 14:03:12;;;;;;;4.50;1.48;;;;;;;;;;5009288;28;20426;-72
2022/12/07 14:05:38;;;;;;;5.15;1.60;;;;;;;;;;5020606;28;20044;-72
2022/12/07 14:08:10;;;;;;;5.07;1.90;;;;;;;;;;5005332;28;20079;-72
2022/12/07 14:10:39;;;;;;;8.05;1.92;;;;;;;;;;5025441;28;20111;-72
2022/12/07 14:13:27;;;;;;;6.32;1.58;;;;;;;;;;5000492;28;20141;-72
2022/12/07 14:15:53;;;;;;;8.18;1.83;;;;;;;;;;4994822;28;20041;-73
2022/12/07 14:18:28;;;;;;;5.90;1.65;;;;;;;;;;4999702;28;20073;-74
2022/12/07 14:21:10;;;;;;;5.38;1.73;;;;;;;;;;5017718;28;20022;-72
2022/12/07 14:23:37;;;;;;;7.90;1.67;;;;;;;;;;5011002;28;20478;-71
2022/12/07 14:26:18;;;;;;;4.22;1.35;;;;;;;;;;5035241;28;20037;-72
2022/12/07 14:28:44;;;;;;;5.47;1.55;;;;;;;;;;5025295;28;20037;-72
2022/12/07 14:31:21;;;;;;;4.40;1.80;;;;;;;;;;5009402;28;20033;-72
2022/12/07 14:33:47;;;;;;;6.78;1.60;;;;;;;;;;5010207;28;20033;-71
2022/12/07 14:36:13;;;;;;;4.25;1.52;;;;;;;;;;5013707;28;20040;-72
2022/12/07 14:38:39;;;;;;;13.15;1.45;;;;;;;;;;5001518;28;20389;-73
2022/12/07 14:43:56;;;;;;;7.47;1.55;;;;;;;;;;5005233;28;20040;-72
2022/12/07 14:46:22;;;;;;;10.82;1.75;;;;;;;;;;5042731;28;20045;-72
2022/12/07 14:48:47;;;;;;;8.98;1.60;;;;;;;;;;5016141;28;20375;-74
2022/12/07 14:51:13;;;;;;;2.10;0.98;;;;;;;;;;5016142;28;20076;-74
2022/12/07 14:53:48;;;;;;;3.30;1.10;;;;;;;;;;5015456;28;20041;-71
2022/12/07 14:56:13;;;;;;;7.35;1.23;;;;;;;;;;4998101;28;20045;-74
2022/12/07 14:58:40;;;;;;;11.55;1.70;;;;;;;;;;5015798;28;20046;-72
2022/12/07 15:01:05;;;;;;;14.98;2.05;;;;;;;;;;5017389;28;20030;-72